createdAt,value
2022-10-18T00:02:13.528Z,12.69
2022-10-18T00:04:39.971Z,12.66
2022-10-18T00:07:06.489Z,12.63
2022-10-18T00:09:33.372Z,12.59
2022-10-18T00:12:00.771Z,12.52
2022-10-18T00:14:27.199Z,12.53
2022-10-18T00:16:53.817Z,12.50
2022-10-18T00:19:20.219Z,12.52
2022-10-18T00:21:46.623Z,12.48
2022-10-18T00:24:13.032Z,12.48
2022-10-18T00:26:39.439Z,12.42
2022-10-18T00:29:05.990Z,12.35
2022-10-18T00:31:37.631Z,12.34
2022-10-18T00:34:14.265Z,12.33
2022-10-18T00:36:41.273Z,12.28
2022-10-18T00:39:09.374Z,12.25
2022-10-18T00:41:38.006Z,12.22
2022-10-18T00:44:10.639Z,12.20
2022-10-18T00:46:39.738Z,12.18
2022-10-18T00:49:37.502Z,12.17
2022-10-18T00:52:15.450Z,12.16
2022-10-18T00:54:44.194Z,12.15
2022-10-18T00:57:11.833Z,12.14
2022-10-18T00:59:38.666Z,12.17
2022-10-18T01:02:06.624Z,12.17
2022-10-18T01:04:33.483Z,12.13
2022-10-18T01:07:47.478Z,12.05
2022-10-18T01:10:25.442Z,12.01
2022-10-18T01:13:12.982Z,12.00
2022-10-18T01:15:52.759Z,11.99
2022-10-18T01:18:36.962Z,11.99
2022-10-18T01:21:16.862Z,11.96
2022-10-18T01:24:13.760Z,11.94
2022-10-18T01:26:43.070Z,11.94
2022-10-18T01:29:25.220Z,11.91
2022-10-18T01:32:04.819Z,11.88
2022-10-18T01:34:36.155Z,11.86
2022-10-18T01:37:07.832Z,11.85
2022-10-18T01:39:38.534Z,11.84
2022-10-18T01:42:10.376Z,11.84
2022-10-18T01:44:38.998Z,11.83
2022-10-18T01:47:09.384Z,11.83
2022-10-18T01:49:35.823Z,11.84
2022-10-18T01:52:02.344Z,11.85
2022-10-18T01:54:36.359Z,11.82
2022-10-18T01:57:16.886Z,11.81
2022-10-18T01:59:56.374Z,11.78
2022-10-18T02:02:25.690Z,11.71
2022-10-18T02:05:07.334Z,11.68
2022-10-18T02:07:55.261Z,11.64
2022-10-18T02:10:48.687Z,11.63
2022-10-18T02:13:19.080Z,11.60
2022-10-18T02:15:48.626Z,11.56
2022-10-18T02:18:20.881Z,11.54
2022-10-18T02:20:48.751Z,11.51
2022-10-18T02:23:18.886Z,11.49
2022-10-18T02:25:45.383Z,11.50
2022-10-18T02:28:11.861Z,11.49
2022-10-18T02:30:48.507Z,11.50
2022-10-18T02:33:21.938Z,11.51
2022-10-18T02:35:56.870Z,11.51
2022-10-18T02:38:25.302Z,11.47
2022-10-18T02:40:51.784Z,11.46
2022-10-18T02:43:18.285Z,11.46
2022-10-18T02:45:44.769Z,11.43
2022-10-18T02:48:11.176Z,11.37
2022-10-18T02:50:37.558Z,11.39
2022-10-18T02:53:04.367Z,11.38
2022-10-18T02:55:30.756Z,11.36
2022-10-18T02:57:57.201Z,11.36
2022-10-18T03:00:23.632Z,11.34
2022-10-18T03:02:50.158Z,11.36
2022-10-18T03:05:16.687Z,11.34
2022-10-18T03:07:43.118Z,11.34
2022-10-18T03:10:09.745Z,11.29
2022-10-18T03:12:36.159Z,11.24
2022-10-18T03:15:02.921Z,11.23
2022-10-18T03:17:29.618Z,11.26
2022-10-18T03:19:56.245Z,11.24
2022-10-18T03:22:22.855Z,11.24
2022-10-18T03:24:49.368Z,11.24
2022-10-18T03:27:15.805Z,11.23
2022-10-18T03:29:42.639Z,11.23
2022-10-18T03:32:09.107Z,11.23
2022-10-18T03:34:35.505Z,11.20
2022-10-18T03:37:04.749Z,11.21
2022-10-18T03:39:32.021Z,11.21
2022-10-18T03:41:58.428Z,11.21
2022-10-18T03:44:39.308Z,11.21
2022-10-18T03:47:05.707Z,11.23
2022-10-18T03:51:58.659Z,11.18
2022-10-18T03:54:25.189Z,11.16
2022-10-18T03:56:51.628Z,11.21
2022-10-18T03:59:18.159Z,11.27
2022-10-18T04:01:44.677Z,11.27
2022-10-18T04:04:11.214Z,11.26
2022-10-18T04:06:37.843Z,11.31
2022-10-18T04:09:07.839Z,11.30
2022-10-18T04:11:36.814Z,11.31
2022-10-18T04:14:03.349Z,11.29
2022-10-18T04:16:29.855Z,11.32
2022-10-18T04:18:56.413Z,11.34
2022-10-18T04:21:22.833Z,11.35
2022-10-18T04:23:50.389Z,11.38
2022-10-18T04:26:17.374Z,11.45
2022-10-18T04:28:44.006Z,11.46
2022-10-18T04:31:11.883Z,11.45
2022-10-18T04:33:38.452Z,11.46
2022-10-18T04:36:05.110Z,11.45
2022-10-18T04:38:31.580Z,11.42
2022-10-18T04:40:58.002Z,11.40
2022-10-18T04:43:24.523Z,11.42
2022-10-18T04:45:51.186Z,11.46
2022-10-18T04:48:18.304Z,11.49
2022-10-18T04:50:48.420Z,11.52
2022-10-18T04:53:15.882Z,11.52
2022-10-18T04:55:49.756Z,11.53
2022-10-18T04:58:17.647Z,11.54
2022-10-18T05:00:44.084Z,11.60
2022-10-18T05:03:13.095Z,11.63
2022-10-18T05:06:00.326Z,11.68
2022-10-18T05:08:26.244Z,11.70
2022-10-18T05:10:52.777Z,11.76
2022-10-18T05:13:19.275Z,11.75
2022-10-18T05:15:48.987Z,11.79
2022-10-18T05:18:15.702Z,11.78
2022-10-18T05:20:42.295Z,11.76
2022-10-18T05:23:11.345Z,11.69
2022-10-18T05:25:39.536Z,11.70
2022-10-18T05:28:15.618Z,11.69
2022-10-18T05:30:52.745Z,11.80
2022-10-18T05:33:19.159Z,11.91
2022-10-18T05:35:45.567Z,12.05
2022-10-18T05:38:12.462Z,12.18
2022-10-18T05:40:39.437Z,12.30
2022-10-18T05:43:05.872Z,12.45
2022-10-18T05:45:32.279Z,12.51
2022-10-18T05:47:58.732Z,12.49
2022-10-18T05:50:25.183Z,12.42
2022-10-18T05:52:51.640Z,12.41
2022-10-18T05:55:18.078Z,12.43
2022-10-18T05:57:49.793Z,12.45
2022-10-18T06:00:16.819Z,12.34
2022-10-18T06:02:43.393Z,12.28
2022-10-18T06:05:09.862Z,12.29
2022-10-18T06:07:36.278Z,12.28
2022-10-18T06:10:02.765Z,12.25
2022-10-18T06:12:29.233Z,12.22
2022-10-18T06:14:55.662Z,12.22
2022-10-18T06:17:22.078Z,12.20
2022-10-18T06:19:48.980Z,12.17
2022-10-18T06:22:15.526Z,12.19
2022-10-18T06:24:41.992Z,12.19
2022-10-18T06:27:10.461Z,12.24
2022-10-18T06:29:37.878Z,12.26
2022-10-18T06:32:06.018Z,12.27
2022-10-18T06:34:33.180Z,12.35
2022-10-18T06:36:59.911Z,12.36
2022-10-18T06:39:26.396Z,12.35
2022-10-18T06:41:53.053Z,12.35
2022-10-18T06:44:22.744Z,12.42
2022-10-18T06:46:49.690Z,12.50
2022-10-18T06:49:19.195Z,12.53
2022-10-18T06:51:46.236Z,12.52
2022-10-18T06:54:18.094Z,12.57
2022-10-18T06:56:45.081Z,12.63
2022-10-18T06:59:11.595Z,12.72
2022-10-18T07:01:38.098Z,12.89
2022-10-18T07:04:04.786Z,13.05
2022-10-18T07:06:31.310Z,13.21
2022-10-18T07:08:57.804Z,13.35
2022-10-18T07:11:26.782Z,13.52
2022-10-18T07:13:54.800Z,13.64
2022-10-18T07:16:21.765Z,13.77
2022-10-18T07:18:50.887Z,13.89
2022-10-18T07:21:20.249Z,14.00
2022-10-18T07:23:47.379Z,14.12
2022-10-18T07:26:18.186Z,14.22
2022-10-18T07:28:46.614Z,14.20
2022-10-18T07:31:13.332Z,14.22
2022-10-18T07:33:40.044Z,14.29
2022-10-18T07:36:08.897Z,14.31
2022-10-18T07:38:35.729Z,14.42
2022-10-18T07:41:04.423Z,14.59
2022-10-18T07:43:30.918Z,14.94
2022-10-18T07:45:59.622Z,15.23
2022-10-18T07:48:26.495Z,15.36
2022-10-18T07:50:53.555Z,15.55
2022-10-18T07:53:19.958Z,15.64
2022-10-18T07:55:46.396Z,15.80
2022-10-18T07:58:12.885Z,15.90
2022-10-18T08:00:40.172Z,16.10
2022-10-18T08:03:06.772Z,16.24
2022-10-18T08:08:07.943Z,17.09
2022-10-18T08:10:35.776Z,17.37
2022-10-18T08:13:02.157Z,17.94
2022-10-18T08:15:28.563Z,18.46
2022-10-18T08:17:54.959Z,19.08
2022-10-18T08:20:30.515Z,19.31
2022-10-18T08:23:00.137Z,19.50
2022-10-18T08:25:27.620Z,19.41
2022-10-18T08:27:54.160Z,19.41
2022-10-18T08:30:20.597Z,19.50
2022-10-18T08:32:47.014Z,19.91
2022-10-18T08:35:13.473Z,20.04
2022-10-18T08:37:40.338Z,20.35
2022-10-18T08:40:07.386Z,20.66
2022-10-18T08:42:52.616Z,21.03
2022-10-18T08:45:37.386Z,21.40
2022-10-18T08:48:07.265Z,21.63
2022-10-18T08:50:36.881Z,22.05
2022-10-18T08:53:13.902Z,22.27
2022-10-18T08:55:52.534Z,22.41
2022-10-18T08:58:30.770Z,22.77
2022-10-18T09:01:33.765Z,23.09
2022-10-18T09:04:06.197Z,23.05
2022-10-18T09:06:40.734Z,22.83
2022-10-18T09:09:16.125Z,22.85
2022-10-18T09:12:11.915Z,22.72
2022-10-18T09:14:45.895Z,22.87
2022-10-18T09:17:24.894Z,22.82
2022-10-18T09:20:16.305Z,22.45
2022-10-18T09:22:51.563Z,22.39
2022-10-18T09:25:19.818Z,22.43
2022-10-18T09:27:53.647Z,22.08
2022-10-18T09:30:26.592Z,22.03
2022-10-18T09:33:21.924Z,21.70
2022-10-18T09:35:57.296Z,21.59
2022-10-18T09:38:30.788Z,21.42
2022-10-18T09:41:18.187Z,21.27
2022-10-18T09:43:54.435Z,21.41
2022-10-18T09:46:26.081Z,21.45
2022-10-18T09:49:03.642Z,21.28
2022-10-18T09:51:36.174Z,21.34
2022-10-18T09:54:20.525Z,21.24
2022-10-18T09:59:36.024Z,21.27
2022-10-18T10:02:03.154Z,21.10
2022-10-18T10:04:30.972Z,20.85
2022-10-18T10:07:00.728Z,20.77
2022-10-18T10:09:58.114Z,20.61
2022-10-18T10:12:36.715Z,20.51
2022-10-18T10:15:13.868Z,20.36
2022-10-18T10:17:40.344Z,20.23
2022-10-18T10:20:25.320Z,20.21
2022-10-18T10:22:52.998Z,20.18
2022-10-18T10:25:41.038Z,20.11
2022-10-18T10:28:15.178Z,20.04
2022-10-18T10:30:41.846Z,19.97
2022-10-18T10:33:35.501Z,19.90
2022-10-18T10:36:05.642Z,19.97
2022-10-18T10:38:32.285Z,19.85
2022-10-18T10:40:59.267Z,19.92
2022-10-18T10:43:43.035Z,19.84
2022-10-18T10:46:16.143Z,19.82
2022-10-18T10:49:15.314Z,19.84
2022-10-18T10:51:44.432Z,19.81
2022-10-18T10:54:20.444Z,19.85
2022-10-18T10:57:16.525Z,19.77
2022-10-18T10:59:48.986Z,19.72
2022-10-18T11:02:15.402Z,19.81
2022-10-18T11:04:42.516Z,19.71
2022-10-18T11:07:08.881Z,19.63
2022-10-18T11:09:50.738Z,19.63
2022-10-18T11:12:22.511Z,19.44
2022-10-18T11:15:12.069Z,19.26
2022-10-18T11:20:37.119Z,18.84
2022-10-18T11:23:10.888Z,18.55
2022-10-18T11:25:58.641Z,18.40
2022-10-18T11:28:47.921Z,18.13
2022-10-18T11:31:20.387Z,17.97
2022-10-18T11:34:10.578Z,17.98
2022-10-18T11:36:56.390Z,17.80
2022-10-18T11:40:02.923Z,17.70
2022-10-18T11:42:47.981Z,17.69
2022-10-18T11:48:20.020Z,17.77
2022-10-18T11:51:14.777Z,17.95
2022-10-18T11:54:03.088Z,18.00
2022-10-18T11:57:01.937Z,18.11
2022-10-18T11:59:38.338Z,18.15
2022-10-18T12:02:21.504Z,18.16
2022-10-18T12:04:59.824Z,18.23
2022-10-18T12:07:56.649Z,18.28
2022-10-18T12:10:37.792Z,18.28
2022-10-18T12:13:17.335Z,18.27
2022-10-18T12:15:45.029Z,18.20
2022-10-18T12:18:19.045Z,18.21
2022-10-18T12:20:55.022Z,18.21
2022-10-18T12:23:39.158Z,18.28
2022-10-18T12:26:09.659Z,18.35
2022-10-18T12:29:07.994Z,18.35
2022-10-18T12:31:48.351Z,18.45
2022-10-18T12:34:36.357Z,18.49
2022-10-18T12:37:40.869Z,18.50
2022-10-18T12:40:20.486Z,18.41
2022-10-18T12:42:50.845Z,18.29
2022-10-18T12:45:25.772Z,18.18
2022-10-18T12:47:53.197Z,18.15
2022-10-18T12:50:32.670Z,18.08
2022-10-18T12:53:26.597Z,17.96
2022-10-18T12:55:54.704Z,17.94
2022-10-18T12:58:23.315Z,17.84
2022-10-18T13:00:49.688Z,17.74
2022-10-18T13:03:19.349Z,17.67
2022-10-18T13:05:54.423Z,17.64
2022-10-18T13:08:28.044Z,17.72
2022-10-18T13:11:10.048Z,17.74
2022-10-18T13:14:01.495Z,17.81
2022-10-18T13:16:39.959Z,17.96
2022-10-18T13:20:24.445Z,18.00
2022-10-18T13:25:55.102Z,17.87
2022-10-18T13:28:30.958Z,17.84
2022-10-18T13:31:23.439Z,17.79
2022-10-18T13:33:50.157Z,17.80
2022-10-18T13:36:24.869Z,17.83
2022-10-18T13:38:55.668Z,17.88
2022-10-18T13:41:43.798Z,17.87
2022-10-18T13:44:11.951Z,17.95
2022-10-18T13:46:38.542Z,18.00
2022-10-18T13:49:14.729Z,18.06
2022-10-18T13:51:53.038Z,18.14
2022-10-18T13:54:37.681Z,18.18
2022-10-18T13:57:22.419Z,18.16
2022-10-18T14:00:24.980Z,18.22
2022-10-18T14:03:54.932Z,18.32
2022-10-18T14:06:26.860Z,18.42
2022-10-18T14:09:06.184Z,18.48
2022-10-18T14:11:46.288Z,18.42
2022-10-18T14:14:15.553Z,18.50
2022-10-18T14:16:56.980Z,18.46
2022-10-18T14:19:32.646Z,18.50
2022-10-18T14:22:11.514Z,18.49
2022-10-18T14:24:43.590Z,18.43
2022-10-18T14:27:20.448Z,18.47
2022-10-18T14:29:48.293Z,18.39
2022-10-18T14:32:29.269Z,18.41
2022-10-18T14:35:20.655Z,18.42
2022-10-18T14:37:43.478Z,18.39
2022-10-18T14:40:28.911Z,18.33
2022-10-18T14:42:55.428Z,18.33
2022-10-18T14:45:23.235Z,18.28
2022-10-18T14:47:49.802Z,18.19
2022-10-18T14:50:30.358Z,18.09
2022-10-18T14:52:57.399Z,17.96
2022-10-18T14:55:26.033Z,17.90
2022-10-18T14:57:52.732Z,17.79
2022-10-18T15:00:33.799Z,17.77
2022-10-18T15:03:02.526Z,17.78
2022-10-18T15:05:28.961Z,17.74
2022-10-18T15:07:58.025Z,17.76
2022-10-18T15:10:28.836Z,17.72
2022-10-18T15:13:16.557Z,17.69
2022-10-18T15:15:44.120Z,17.56
2022-10-18T15:18:25.222Z,17.46
2022-10-18T15:21:23.761Z,17.43
2022-10-18T15:23:51.579Z,17.37
2022-10-18T15:26:29.514Z,17.30
2022-10-18T15:29:00.554Z,17.34
2022-10-18T15:31:33.025Z,17.36
2022-10-18T15:34:15.274Z,17.26
2022-10-18T15:36:44.986Z,17.20
2022-10-18T15:39:18.967Z,17.16
2022-10-18T15:41:52.729Z,17.12
2022-10-18T15:44:28.307Z,17.14
2022-10-18T15:47:09.017Z,17.05
2022-10-18T15:49:44.690Z,16.99
2022-10-18T15:52:26.000Z,16.94
2022-10-18T15:54:52.431Z,16.87
2022-10-18T15:57:18.950Z,16.84
2022-10-18T15:59:54.870Z,16.77
2022-10-18T16:02:21.435Z,16.73
2022-10-18T16:04:47.940Z,16.73
2022-10-18T16:07:14.405Z,16.68
2022-10-18T16:09:41.020Z,16.65
2022-10-18T16:12:07.495Z,16.60
2022-10-18T16:14:34.033Z,16.60
2022-10-18T16:17:03.923Z,16.53
2022-10-18T16:19:32.047Z,16.51
2022-10-18T16:22:05.948Z,16.51
2022-10-18T16:24:33.051Z,16.45
2022-10-18T16:26:59.490Z,16.37
2022-10-18T16:29:28.498Z,16.36
2022-10-18T16:31:58.142Z,16.37
2022-10-18T16:34:29.451Z,16.29
2022-10-18T16:36:55.998Z,16.27
2022-10-18T16:39:22.987Z,16.25
2022-10-18T16:41:51.229Z,16.28
2022-10-18T16:44:19.134Z,16.20
2022-10-18T16:46:46.495Z,16.20
2022-10-18T16:49:22.702Z,16.14
2022-10-18T16:51:50.275Z,16.16
2022-10-18T16:54:16.803Z,16.16
2022-10-18T16:56:43.239Z,16.09
2022-10-18T16:59:27.774Z,16.08
2022-10-18T17:01:54.392Z,16.04
2022-10-18T17:04:20.941Z,16.06
2022-10-18T17:06:49.085Z,16.05
2022-10-18T17:09:15.930Z,16.07
2022-10-18T17:11:42.575Z,16.06
2022-10-18T17:14:08.987Z,16.03
2022-10-18T17:16:37.078Z,16.01
2022-10-18T17:19:06.701Z,16.01
2022-10-18T17:21:33.829Z,16.00
2022-10-18T17:24:04.311Z,16.03
2022-10-18T17:26:31.229Z,15.96
2022-10-18T17:29:03.789Z,15.95
2022-10-18T17:31:31.494Z,15.93
2022-10-18T17:33:58.820Z,15.91
2022-10-18T17:36:25.873Z,15.89
2022-10-18T17:38:53.660Z,15.89
2022-10-18T17:41:20.948Z,15.88
2022-10-18T17:43:48.331Z,15.87
2022-10-18T17:46:15.408Z,15.87
2022-10-18T17:48:42.576Z,15.83
2022-10-18T17:51:11.086Z,15.83
2022-10-18T17:53:37.839Z,15.81
2022-10-18T17:56:05.086Z,15.79
2022-10-18T17:58:31.638Z,15.74
2022-10-18T18:00:58.495Z,15.70
2022-10-18T18:03:24.975Z,15.68
2022-10-18T18:05:51.461Z,15.66
2022-10-18T18:08:17.914Z,15.62
2022-10-18T18:10:44.443Z,15.54
2022-10-18T18:13:11.176Z,15.51
2022-10-18T18:15:37.997Z,15.47
2022-10-18T18:18:04.441Z,15.44
2022-10-18T18:20:30.962Z,15.40
2022-10-18T18:22:57.505Z,15.37
2022-10-18T18:25:23.932Z,15.26
2022-10-18T18:27:50.378Z,15.18
2022-10-18T18:30:18.003Z,15.16
2022-10-18T18:32:44.657Z,15.11
2022-10-18T18:35:11.527Z,15.04
2022-10-18T18:37:37.953Z,14.92
2022-10-18T18:40:04.748Z,14.88
2022-10-18T18:42:32.560Z,14.83
2022-10-18T18:44:59.097Z,14.80
2022-10-18T18:47:27.131Z,14.76
2022-10-18T18:49:53.562Z,14.71
2022-10-18T18:52:19.996Z,14.63
2022-10-18T18:54:46.421Z,14.57
2022-10-18T18:57:12.870Z,14.53
2022-10-18T18:59:39.354Z,14.49
2022-10-18T19:02:05.789Z,14.46
2022-10-18T19:04:32.838Z,14.35
2022-10-18T19:06:59.244Z,14.34
2022-10-18T19:09:27.329Z,14.32
2022-10-18T19:11:56.235Z,14.33
2022-10-18T19:14:25.018Z,14.33
2022-10-18T19:16:54.584Z,14.27
2022-10-18T19:19:23.047Z,14.21
2022-10-18T19:21:52.336Z,14.14
2022-10-18T19:24:20.506Z,14.11
2022-10-18T19:26:54.407Z,14.08
2022-10-18T19:29:24.842Z,14.01
2022-10-18T19:31:53.915Z,13.97
2022-10-18T19:34:21.837Z,14.00
2022-10-18T19:36:49.218Z,13.99
2022-10-18T19:39:18.635Z,13.93
2022-10-18T19:41:50.643Z,13.91
2022-10-18T19:44:20.729Z,13.91
2022-10-18T19:46:48.172Z,13.91
2022-10-18T19:49:14.976Z,13.90
2022-10-18T19:51:41.954Z,13.91
2022-10-18T19:54:11.422Z,13.92
2022-10-18T19:56:38.070Z,13.93
2022-10-18T19:59:04.574Z,13.89
2022-10-18T20:01:31.104Z,13.88
2022-10-18T20:03:57.652Z,13.95
2022-10-18T20:06:24.237Z,13.94
2022-10-18T20:08:51.460Z,13.94
2022-10-18T20:11:22.022Z,13.95
2022-10-18T20:13:48.499Z,13.96
2022-10-18T20:16:16.555Z,13.99
2022-10-18T20:18:43.365Z,13.99
2022-10-18T20:21:11.886Z,14.03
2022-10-18T20:23:40.670Z,14.09
2022-10-18T20:26:20.531Z,14.09
2022-10-18T20:28:55.546Z,14.09
2022-10-18T20:31:27.616Z,14.11
2022-10-18T20:33:59.400Z,14.13
2022-10-18T20:36:27.396Z,14.16
2022-10-18T20:38:54.814Z,14.17
2022-10-18T20:41:24.336Z,14.19
2022-10-18T20:44:00.997Z,14.23
2022-10-18T20:46:30.552Z,14.24
2022-10-18T20:48:57.153Z,14.25
2022-10-18T20:51:24.032Z,14.28
2022-10-18T20:53:51.153Z,14.32
2022-10-18T20:56:20.471Z,14.34
2022-10-18T20:58:49.207Z,14.34
2022-10-18T21:01:21.202Z,14.37
2022-10-18T21:03:49.646Z,14.42
2022-10-18T21:06:17.098Z,14.39
2022-10-18T21:08:44.428Z,14.38
2022-10-18T21:11:11.905Z,14.41
2022-10-18T21:13:40.716Z,14.37
2022-10-18T21:16:07.735Z,14.33
2022-10-18T21:18:36.771Z,14.34
2022-10-18T21:21:08.384Z,14.34
2022-10-18T21:23:35.444Z,14.33
2022-10-18T21:26:01.917Z,14.30
2022-10-18T21:28:28.351Z,14.27
2022-10-18T21:30:54.800Z,14.25
2022-10-18T21:33:21.258Z,14.21
2022-10-18T21:35:47.680Z,14.15
2022-10-18T21:38:14.082Z,14.13
2022-10-18T21:40:44.510Z,14.13
2022-10-18T21:43:11.839Z,14.15
2022-10-18T21:45:38.265Z,14.13
2022-10-18T21:48:04.895Z,14.11
2022-10-18T21:50:34.029Z,14.02
2022-10-18T21:53:00.489Z,13.96
2022-10-18T21:55:26.995Z,13.96
2022-10-18T21:57:53.521Z,13.97
2022-10-18T22:00:20.057Z,13.97
2022-10-18T22:02:46.557Z,13.98
2022-10-18T22:05:13.008Z,13.99
2022-10-18T22:07:39.507Z,13.93
2022-10-18T22:10:06.342Z,13.90
2022-10-18T22:12:32.770Z,13.90
2022-10-18T22:14:59.294Z,13.89
2022-10-18T22:17:26.040Z,13.86
2022-10-18T22:19:52.425Z,13.82
2022-10-18T22:22:18.858Z,13.83
2022-10-18T22:24:45.254Z,13.85
2022-10-18T22:27:11.726Z,13.83
2022-10-18T22:29:38.179Z,13.77
2022-10-18T22:32:04.783Z,13.81
2022-10-18T22:34:31.247Z,13.76
2022-10-18T22:36:57.645Z,13.73
2022-10-18T22:39:24.608Z,13.68
2022-10-18T22:41:55.691Z,13.62
2022-10-18T22:44:22.314Z,13.58
2022-10-18T22:46:49.327Z,13.54
2022-10-18T22:49:15.936Z,13.56
2022-10-18T22:51:42.373Z,13.51
2022-10-18T22:54:08.990Z,13.46
2022-10-18T22:56:35.437Z,13.36
2022-10-18T22:59:01.879Z,13.34
2022-10-18T23:01:28.406Z,13.31
2022-10-18T23:03:56.841Z,13.28
2022-10-18T23:06:34.808Z,13.23
2022-10-18T23:09:05.403Z,13.19
2022-10-18T23:11:32.718Z,13.18
2022-10-18T23:13:59.221Z,13.20
2022-10-18T23:16:25.618Z,13.20
2022-10-18T23:18:54.680Z,13.16
2022-10-18T23:21:24.122Z,13.12
2022-10-18T23:23:51.720Z,13.05
2022-10-18T23:26:21.049Z,13.01
2022-10-18T23:28:49.125Z,12.98
2022-10-18T23:31:34.818Z,12.99
2022-10-18T23:34:04.757Z,12.90
2022-10-18T23:36:32.473Z,12.86
2022-10-18T23:38:59.275Z,12.85
2022-10-18T23:41:26.095Z,12.83
2022-10-18T23:43:52.890Z,12.76
2022-10-18T23:46:20.489Z,12.76
2022-10-18T23:48:47.508Z,12.77
2022-10-18T23:51:14.914Z,12.63
2022-10-18T23:53:41.432Z,12.55
2022-10-18T23:56:11.182Z,12.49
2022-10-18T23:58:38.688Z,12.46
